Terminal Aerodrome Forecast
Issued by NWS

Home | Current Version | Previous Version | Text Only | Print | Product List | Glossary On
Versions: 1 2 3 4 5 6 7 8 9 10 11 12 13 14 15 16
000
FTUS43 KMQT 291124
TAFSAW
TAF
KSAW 291124Z 2912/3012 18009KT 1/4SM FG VCSH OVC002
      TEMPO 2912/2915 3/4SM -SHRA
     FM291500 24013KT 3SM BR VCSH SCT003 OVC007
     FM291800 26012KT P6SM OVC009
     FM292100 27013KT P6SM BKN012
     FM300000 30010KT P6SM BKN015
     FM300400 30009KT 6SM BR BKN008=

USA.gov is the U.S. government's official web portal to all federal, state and local government web resources and services.